METAR Data
IDs: Format: Raw Decoded Include TAF

Data at: 0215 UTC 29 May 2022

KPGV 290155Z AUTO 00000KT 10SM CLR 20/18 A2994 RMK AO2
KPGV 290135Z AUTO 00000KT 10SM CLR 21/17 A2993 RMK AO2
KPGV 290115Z AUTO 00000KT 10SM CLR 22/16 A2992 RMK AO2
KPGV 290055Z AUTO 00000KT 10SM CLR 23/16 A2992 RMK AO2
KPGV 290035Z AUTO 35003KT 10SM CLR 24/16 A2991 RMK AO2
KPGV 290015Z AUTO 35003KT 10SM CLR 25/16 A2990 RMK AO2
KPGV 282355Z AUTO 36003KT 10SM CLR 25/15 A2990 RMK AO2
KPGV 282335Z AUTO 00000KT 10SM CLR 27/14 A2990 RMK AO2
KPGV 282315Z AUTO 00000KT 10SM CLR 27/14 A2989 RMK AO2
KPGV 282255Z AUTO 34003KT 10SM SCT065 27/14 A2989 RMK AO2
KPGV 282235Z AUTO 34005KT 7SM SCT065 27/14 A2988 RMK AO2
KPGV 282215Z AUTO 33004KT 10SM BKN065 28/14 A2988 RMK AO2
KPGV 282155Z AUTO 32003KT 10SM BKN065 27/14 A2988 RMK AO2
KPGV 282135Z AUTO 31005KT 10SM BKN065 28/14 A2988 RMK AO2
KPGV 282115Z AUTO 00000KT 7SM SCT065 27/14 A2988 RMK AO2
KPGV 282055Z AUTO 31003KT 10SM SCT065 28/13 A2987 RMK AO2
KPGV 282035Z AUTO 00000KT 10SM SCT055 28/14 A2987 RMK AO2
KPGV 282015Z AUTO 29004KT 10SM SCT055 28/13 A2986 RMK AO2
KPGV 281955Z AUTO 26005KT 10SM SCT055 27/14 A2987 RMK AO2
KPGV 281935Z AUTO 25005KT 10SM SCT055 28/14 A2987 RMK AO2
KPGV 281915Z AUTO 28005KT 10SM CLR 28/14 A2987 RMK AO2
KPGV 281855Z AUTO 30005KT 10SM CLR 28/14 A2988 RMK AO2
KPGV 281835Z AUTO 31006KT 10SM CLR 28/13 A2988 RMK AO2
KPGV 281815Z AUTO 29007KT 7SM CLR 27/14 A2989 RMK AO2
KPGV 281755Z AUTO 31005KT 10SM CLR 27/14 A2989 RMK AO2
KPGV 281735Z AUTO 00000KT 10SM CLR 27/14 A2989 RMK AO2
KPGV 281715Z AUTO 31005KT 10SM CLR 27/13 A2989 RMK AO2
KPGV 281655Z AUTO 28004KT 10SM CLR 27/14 A2989 RMK AO2
KPGV 281635Z AUTO 26005KT 10SM CLR 27/14 A2989 RMK AO2
KPGV 281615Z AUTO 29004KT 10SM CLR 26/13 A2990 RMK AO2
KPGV 281555Z AUTO 00000KT 10SM CLR 25/14 A2990 RMK AO2
KPGV 281535Z AUTO 35005KT 10SM CLR 25/15 A2990 RMK AO2
KPGV 281515Z AUTO 31005KT 10SM CLR 25/15 A2990 RMK AO2
KPGV 281455Z AUTO 30004KT 10SM CLR 25/16 A2990 RMK AO2
KPGV 281435Z AUTO 28003KT 10SM CLR 24/16 A2990 RMK AO2
KPGV 281415Z AUTO 33004KT 10SM CLR 24/17 A2990 RMK AO2
KPGV 281355Z AUTO 32003KT 10SM SCT110 22/17 A2989 RMK AO2
KPGV 281335Z AUTO 34003KT 10SM OVC110 22/18 A2990 RMK AO2
KPGV 281315Z AUTO 29003KT 10SM OVC095 22/17 A2990 RMK AO2
KPGV 281255Z AUTO 33004KT 10SM BKN095 21/18 A2990 RMK AO2
KPGV 281235Z AUTO 30004KT 10SM SCT095 22/17 A2989 RMK AO2
KPGV 281215Z AUTO 00000KT 10SM CLR 21/18 A2988 RMK AO2
KPGV 281155Z AUTO 00000KT 10SM CLR 20/18 A2987 RMK AO2
KPGV 281135Z AUTO 00000KT 7SM CLR 20/19 A2987 RMK AO2
KPGV 281115Z AUTO 00000KT 7SM CLR 20/20 A2986 RMK AO2
KPGV 281055Z AUTO 00000KT 7SM CLR 18/18 A2985 RMK AO2
KPGV 281035Z AUTO 00000KT 7SM SCT041 SCT065 SCT110 18/18 A2984 RMK AO2
KPGV 281015Z AUTO 00000KT 7SM SCT038 BKN065 OVC110 18/18 A2985 RMK AO2
KPGV 280955Z AUTO 00000KT 10SM SCT033 BKN044 OVC110 18/18 A2984 RMK AO2
KPGV 280935Z AUTO 00000KT 10SM SCT030 BKN040 OVC065 18/18 A2984 RMK AO2
KPGV 280915Z AUTO 00000KT 10SM DZ SCT013 BKN043 OVC065 19/18 A2982 RMK AO2
KPGV 280855Z AUTO 32009G14KT 7SM SCT009 SCT016 BKN028 21/19 A2983 RMK AO2
KPGV 280835Z AUTO 25005KT 7SM SCT016 SCT022 BKN037 22/22 A2981 RMK AO2
KPGV 280815Z AUTO 26005KT 7SM SCT018 22/22 A2981 RMK AO2
KPGV 280755Z AUTO 23006KT 10SM SCT010 22/22 A2981 RMK AO2
KPGV 280735Z AUTO 22007KT 5SM BR SCT012 BKN018 22/22 A2981 RMK AO2
KPGV 280715Z AUTO 21007KT 7SM OVC016 22/22 A2982 RMK AO2
KPGV 280655Z AUTO 21006KT 5SM BR OVC014 22/22 A2982 RMK AO2
KPGV 280635Z AUTO 22009KT 5SM BR OVC014 22/22 A2982 RMK AO2
KPGV 280615Z AUTO 23008KT 7SM OVC014 22/22 A2983 RMK AO2
KPGV 280555Z AUTO 21008KT 4SM BR OVC014 22/22 A2983 RMK AO2
KPGV 280535Z AUTO 21006KT 4SM BR OVC016 22/22 A2984 RMK AO2
KPGV 280515Z AUTO 20006KT 1 1/4SM BR OVC016 22/22 A2985 RMK AO2
KPGV 280455Z AUTO 19005KT 3SM BR OVC014 22/22 A2985 RMK AO2
KPGV 280435Z AUTO 19005KT 10SM OVC012 22/22 A2985 RMK AO2
KPGV 280415Z AUTO 20004KT 10SM OVC014 22/22 A2986 RMK AO2
KPGV 280355Z AUTO 20006KT 10SM OVC016 22/22 A2985 RMK AO2
KPGV 280335Z AUTO 21004KT 10SM OVC016 22/22 A2985 RMK AO2
KPGV 280315Z AUTO 21006KT 10SM OVC016 22/22 A2986 RMK AO2
KPGV 280255Z AUTO 21007KT 10SM OVC016 22/22 A2985 RMK AO2
KPGV 280235Z AUTO 21008KT 10SM BKN016 22/22 A2985 RMK AO2
KPGV 280215Z AUTO 21007KT 10SM BKN018 22/22 A2985 RMK AO2
KPGV 280155Z AUTO 20010KT 7SM SCT020 22/22 A2985 RMK AO2
KPGV 280135Z AUTO 20009KT 10SM OVC020 23/22 A2986 RMK AO2
KPGV 280115Z AUTO 21009KT 10SM OVC022 23/22 A2986 RMK AO2
KPGV 280055Z AUTO 20007KT 10SM BKN024 BKN049 OVC075 23/21 A2986 RMK AO2
KPGV 280035Z AUTO 22006KT 10SM SCT049 OVC075 23/21 A2986 RMK AO2
KPGV 280015Z AUTO 21008KT 10SM BKN075 OVC110 23/21 A2986 RMK AO2
KPGV 272355Z AUTO 21006KT 10SM OVC110 23/21 A2986 RMK AO2
KPGV 272335Z AUTO 22006KT 10SM BKN100 24/21 A2985 RMK AO2
KPGV 272315Z AUTO 22007G14KT 10SM CLR 25/21 A2985 RMK AO2
KPGV 272255Z AUTO 22008KT 10SM CLR 25/21 A2985 RMK AO2
KPGV 272235Z AUTO 21013KT 10SM CLR 24/21 A2985 RMK AO2
KPGV 272215Z AUTO 21012G17KT 10SM CLR 25/20 A2985 RMK AO2
KPGV 272155Z AUTO 20013KT 10SM CLR 25/21 A2984 RMK AO2
KPGV 272135Z AUTO 22009KT 10SM CLR 25/21 A2985 RMK AO2
KPGV 272115Z AUTO 19012KT 10SM CLR 25/21 A2983 RMK AO2
KPGV 272055Z AUTO 20010G15KT 10SM CLR 25/21 A2985 RMK AO2
KPGV 272035Z AUTO 23012G18KT 10SM CLR 25/20 A2985 RMK AO2
KPGV 272015Z AUTO 22016G23KT 10SM SCT024 25/21 A2987 RMK AO2
KPGV 271955Z AUTO 24011KT 10SM BKN024 BKN032 BKN120 26/22 A2988 RMK AO2
KPGV 271935Z AUTO 22011G16KT 7SM SCT026 SCT120 25/21 A2988 RMK AO2
KPGV 271915Z AUTO 23011G16KT 10SM SCT017 25/22 A2988 RMK AO2
KPGV 271855Z AUTO 22009G17KT 10SM BKN015 BKN020 25/23 A2988 RMK AO2
KPGV 271835Z AUTO 22007G15KT 173V233 10SM BKN013 BKN032 BKN110 25/23 A2989 RMK AO2
KPGV 271815Z AUTO 20008KT 10SM SCT018 SCT032 BKN110 23/23 A2989 RMK AO2
KPGV 271755Z AUTO 18007KT 10SM SCT025 SCT060 BKN110 23/23 A2990 RMK AO2
KPGV 271735Z AUTO 19005KT 10SM -RA SCT032 SCT060 BKN110 22/22 A2992 RMK AO2
KPGV 271715Z AUTO 19004KT 10SM SCT034 SCT050 OVC110 22/22 A2992 RMK AO2
KPGV 271655Z AUTO 18008KT 10SM -RA SCT075 OVC110 22/22 A2994 RMK AO2 P0006
KPGV 271635Z AUTO 19007KT 7SM RA SCT030 SCT055 OVC110 22/22 A2995 RMK AO2 P0004
KPGV 271615Z AUTO 20005KT 7SM SCT027 BKN034 OVC120 22/22 A2995 RMK AO2
KPGV 271555Z AUTO 19011G25KT 7SM -RA SCT070 BKN090 BKN120 22/21 A2996 RMK AO2 P0003
KPGV 271535Z AUTO 23009KT 10SM SCT025 BKN055 OVC110 22/21 A2995 RMK AO2 P0002
KPGV 271515Z AUTO 21010G19KT 5SM -RA SCT030 SCT050 BKN070 24/23 A2995 RMK AO2 P0002
KPGV 271455Z AUTO 21013G22KT 7SM SCT027 SCT034 BKN075 27/23 A2993 RMK AO2
KPGV 271435Z AUTO 20010G14KT 10SM BKN027 BKN034 OVC050 28/23 A2994 RMK AO2